Snow/Ice From: 23-10-2018 22:46 Until: 24-10-2018 08:00 warning for: Snow/Ice Level: Yellow info button
suomi:
Liikennesää: Ajokeli on huono tienpintojen jäätymisen vuoksi.

svenska:
Trafikvädret: Väglaget är dåligt p.g.a. tillfrysning av vägytor.

english:
Traffic weather warning: Bad road conditions are expected because of ice-covered roads. 


Thunder radar more information blitzortung!


Löydät sääaseman tiedot myös:

European Weather Network

Finland Weather Exchange

Weather Underground

AWEKAS



Weather Underground säähistoriasivu

Päivittäin yhteenveto Helmikuu 22, 2017 Yksiköt:  Englantilaiset    Metriset   Molemmat
« Edellinen Päivä
Seuraava Päivä »
Päivittäin Viikoittain Kuukausittain Vuosittain Mukautettu
  Korkea: Matala: Keskiarvo:
Lämpötila: TemperatureF °F 11.3 °F 19.8 °F
Kastepiste: DewpointF °F 9.0 °F 16.8 °F
Kosteus: Humidity % 76 % 87 %
Tuulen nopeus: WindSpeedMPH mph 0.0 mph 2.3 mph
Tuulenpuuska: WindSpeedGustMPH mph - -
Tuuli:- - SSE
Ilmanpaine: PressureIn in 28.62 in -
Sade: 0.00 in    
Historical Graphs
 
 
Taulukkotiedot Helmikuu 22, 2017
Aika Lämpötila Kastepiste Ilmanpaine Tuuli Tuulen nopeus Tuulenpuuska Kosteus Sademäärä (tunneittain)
TemperatureF °F DewpointF °F PressureIn in Calm     Humidity % HourlyPrecipIn in
00:00 13.6 °F 11.7 °F 29.43 in Calm     92 % 0.00 in
00:15 13.6 °F 11.7 °F 29.43 in Calm     92 % 0.00 in
00:30 13.6 °F 11.7 °F 29.43 in Calm     92 % 0.00 in
00:45 13.6 °F 11.8 °F 29.43 in Calm   1.0 mph 92 % 0.00 in
01:00 13.5 °F 11.3 °F 29.43 in Calm     91 % 0.00 in
01:15 12.9 °F 10.9 °F 29.42 in Calm     91 % 0.00 in
01:30 12.7 °F 10.6 °F 29.42 in Calm     91 % 0.00 in
01:45 12.4 °F 10.2 °F 29.41 in Calm     91 % 0.00 in
02:00 11.8 °F 9.9 °F 29.41 in Calm     91 % 0.00 in
02:15 11.5 °F 9.3 °F 29.41 in Calm     91 % 0.00 in
02:30 11.3 °F 9.1 °F 29.40 in Calm     91 % 0.00 in
02:45 11.5 °F 9.5 °F 29.40 in Calm   1.0 mph 92 % 0.00 in
03:00 11.7 °F 9.9 °F 29.40 in Calm     92 % 0.00 in
03:15 11.8 °F 10.0 °F 29.39 in Calm   1.0 mph 92 % 0.00 in
03:30 12.4 °F 10.4 °F 29.38 in Calm   4.0 mph 92 % 0.00 in
03:45 12.7 °F 10.9 °F 29.38 in SSW 1.0 mph 4.0 mph 92 % 0.00 in
04:00 12.9 °F 10.9 °F 29.37 in Calm   2.0 mph 91 % 0.00 in
04:15 12.7 °F 10.8 °F 29.37 in Calm   3.0 mph 91 % 0.00 in
04:30 12.6 °F 10.0 °F 29.36 in Calm   1.0 mph 90 % 0.00 in
04:45 12.2 °F 9.9 °F 29.34 in Calm     90 % 0.00 in
05:00 11.3 °F 9.0 °F 29.34 in Calm   2.0 mph 90 % 0.00 in
05:15 11.8 °F 10.0 °F 29.33 in Calm   2.0 mph 92 % 0.00 in
05:30 12.2 °F 10.4 °F 29.31 in Calm   2.0 mph 92 % 0.00 in
05:45 13.6 °F 12.0 °F 29.31 in Calm   5.0 mph 93 % 0.00 in
06:00 14.7 °F 13.1 °F 29.30 in South 1.0 mph 6.0 mph 93 % 0.00 in
06:15 15.1 °F 13.3 °F 29.29 in SSE 1.0 mph 5.0 mph 92 % 0.00 in
06:30 15.3 °F 13.5 °F 29.28 in SSE 1.0 mph 5.0 mph 92 % 0.00 in
06:45 16.0 °F 14.0 °F 29.28 in SSE 1.0 mph 6.0 mph 92 % 0.00 in
07:00 16.2 °F 14.2 °F 29.27 in Calm   1.0 mph 92 % 0.00 in
07:15 15.8 °F 13.8 °F 29.27 in Calm   2.0 mph 92 % 0.00 in
07:30 15.6 °F 13.6 °F 29.26 in Calm   1.0 mph 92 % 0.00 in
07:45 15.4 °F 13.6 °F 29.25 in Calm   4.0 mph 92 % 0.00 in
08:00 15.6 °F 13.8 °F 29.24 in SSE 1.0 mph 5.0 mph 92 % 0.00 in
08:15 16.0 °F 13.8 °F 29.24 in SSE 1.0 mph 5.0 mph 91 % 0.00 in
08:30 16.3 °F 14.2 °F 29.23 in South 1.0 mph 6.0 mph 91 % 0.00 in
08:45 16.9 °F 14.4 °F 29.22 in SSE 1.0 mph 5.0 mph 90 % 0.00 in
09:00 17.4 °F 14.9 °F 29.21 in South 2.0 mph 6.0 mph 90 % 0.00 in
09:15 18.0 °F 15.6 °F 29.20 in South 2.0 mph 6.0 mph 90 % 0.00 in
09:30 18.7 °F 16.2 °F 29.19 in South 3.0 mph 11.0 mph 90 % 0.00 in
09:45 19.4 °F 16.7 °F 29.19 in South 5.0 mph 10.0 mph 89 % 0.00 in
10:00 20.1 °F 17.4 °F 29.18 in SSE 5.0 mph 12.0 mph 89 % 0.00 in
10:15 20.7 °F 18.0 °F 29.17 in South 3.0 mph 10.0 mph 89 % 0.00 in
10:30 21.2 °F 18.1 °F 29.17 in SSE 4.0 mph 11.0 mph 88 % 0.00 in
10:45 21.6 °F 18.7 °F 29.16 in South 3.0 mph 9.0 mph 88 % 0.00 in
11:00 22.1 °F 19.0 °F 29.15 in South 4.0 mph 10.0 mph 88 % 0.00 in
11:15 22.6 °F 19.4 °F 29.14 in South 4.0 mph 12.0 mph 87 % 0.00 in
11:30 23.0 °F 19.8 °F 29.12 in SSE 3.0 mph 10.0 mph 87 % 0.00 in
11:45 23.5 °F 20.1 °F 29.11 in SSE 3.0 mph 11.0 mph 87 % 0.00 in
12:00 23.9 °F 20.7 °F 29.10 in South 4.0 mph 10.0 mph 87 % 0.00 in
12:15 24.4 °F 21.0 °F 29.09 in South 4.0 mph 13.0 mph 87 % 0.00 in
12:30 24.6 °F 21.0 °F 29.08 in South 5.0 mph 18.0 mph 86 % 0.00 in
12:45 25.0 °F 21.4 °F 29.06 in SSE 4.0 mph 13.0 mph 86 % 0.00 in
13:00 25.3 °F 21.4 °F 29.05 in South 4.0 mph 13.0 mph 85 % 0.00 in
13:15 25.7 °F 21.6 °F 29.04 in South 5.0 mph 12.0 mph 84 % 0.00 in
13:30 26.1 °F 21.6 °F 29.03 in South 5.0 mph 16.0 mph 83 % 0.00 in
13:45 26.2 °F 21.7 °F 29.01 in SSE 4.0 mph 11.0 mph 83 % 0.00 in
14:00 26.4 °F 21.9 °F 29.00 in SSE 4.0 mph 15.0 mph 83 % 0.00 in
14:15 26.6 °F 21.9 °F 28.99 in SSE 4.0 mph 18.0 mph 82 % 0.00 in
14:30 26.8 °F 21.4 °F 28.97 in South 5.0 mph 18.0 mph 80 % 0.00 in
14:45 27.0 °F 21.6 °F 28.97 in South 5.0 mph 19.0 mph 80 % 0.00 in
15:00 26.8 °F 21.7 °F 28.95 in SE 3.0 mph 14.0 mph 81 % 0.00 in
15:15 26.4 °F 21.4 °F 28.94 in SSE 4.0 mph 13.0 mph 81 % 0.00 in
15:30 26.2 °F 21.2 °F 28.93 in South 4.0 mph 14.0 mph 81 % 0.00 in
15:45 26.1 °F 21.0 °F 28.92 in SSE 4.0 mph 11.0 mph 81 % 0.00 in
16:00 26.1 °F 21.0 °F 28.90 in SE 6.0 mph 19.0 mph 81 % 0.00 in
16:15 26.1 °F 20.8 °F 28.89 in SE 4.0 mph 11.0 mph 80 % 0.00 in
16:30 26.2 °F 20.3 °F 28.88 in SSE 4.0 mph 18.0 mph 78 % 0.00 in
16:45 26.1 °F 19.4 °F 28.87 in SSE 5.0 mph 15.0 mph 76 % 0.00 in
17:00 26.1 °F 19.4 °F 28.86 in SSE 4.0 mph 14.0 mph 76 % 0.00 in
17:15 25.9 °F 19.6 °F 28.85 in SE 4.0 mph 13.0 mph 77 % 0.00 in
17:30 25.3 °F 20.3 °F 28.84 in SE 3.0 mph 14.0 mph 81 % 0.00 in
17:45 25.0 °F 20.5 °F 28.83 in SSE 3.0 mph 14.0 mph 83 % 0.00 in
18:00 24.6 °F 20.5 °F 28.82 in SE 4.0 mph 19.0 mph 84 % 0.00 in
18:15 24.3 °F 20.7 °F 28.81 in SSE 4.0 mph 15.0 mph 86 % 0.00 in
18:30 24.1 °F 21.0 °F 28.80 in SSE 3.0 mph 9.0 mph 88 % 0.00 in
18:45 23.7 °F 21.0 °F 28.79 in SE 3.0 mph 16.0 mph 89 % 0.00 in
19:00 23.5 °F 21.0 °F 28.79 in SE 3.0 mph 15.0 mph 90 % 0.00 in
19:15 23.4 °F 21.0 °F 28.78 in SSE 3.0 mph 10.0 mph 91 % 0.00 in
19:30 23.2 °F 20.8 °F 28.77 in SE 3.0 mph 10.0 mph 91 % 0.00 in
19:45 23.2 °F 21.2 °F 28.76 in SE 3.0 mph 13.0 mph 92 % 0.00 in
20:00 23.0 °F 20.8 °F 28.75 in SSE 3.0 mph 11.0 mph 91 % 0.00 in
20:15 22.8 °F 20.8 °F 28.74 in SE 4.0 mph 16.0 mph 92 % 0.00 in
20:30 22.8 °F 20.8 °F 28.73 in SSE 3.0 mph 9.0 mph 92 % 0.00 in
20:45 22.8 °F 20.7 °F 28.72 in SE 2.0 mph 9.0 mph 91 % 0.00 in
21:00 23.0 °F 20.5 °F 28.71 in SE 4.0 mph 16.0 mph 90 % 0.00 in
21:15 23.0 °F 22.5 °F 28.70 in SE 3.0 mph 11.0 mph 98 % 0.00 in
21:30 23.2 °F 20.7 °F 28.69 in SE 3.0 mph 14.0 mph 90 % 0.00 in
21:45 23.0 °F 20.5 °F 28.67 in SSE 3.0 mph 9.0 mph 90 % 0.00 in
22:00 23.0 °F 20.5 °F 28.67 in ESE 4.0 mph 14.0 mph 90 % 0.00 in
22:15 23.2 °F 20.3 °F 28.66 in SE 2.0 mph 8.0 mph 89 % 0.00 in
22:30 23.4 °F 20.5 °F 28.66 in SE 3.0 mph 12.0 mph 89 % 0.00 in
22:45 23.4 °F 20.7 °F 28.65 in ENE 2.0 mph 7.0 mph 89 % 0.00 in
23:00 23.4 °F 20.7 °F 28.65 in SSE 3.0 mph 13.0 mph 89 % 0.00 in
23:15 23.4 °F 20.7 °F 28.64 in SE 3.0 mph 10.0 mph 89 % 0.00 in
23:30 23.4 °F 20.7 °F 28.62 in ESE 3.0 mph 8.0 mph 89 % 0.00 in
23:45 23.5 °F 20.7 °F 28.62 in SE 2.0 mph 12.0 mph 89 % 0.00 in
Esan sääasema
Terveisin Weather Underground - 2.75 mb

Alkuperäinen skripti  Jim McMurry - jmcmurry@mwt.net Sovitettu myös templatelle  Wim van der Kuil - Leuven-Template.eu

Laitteet joita käytämme:

Sääasema
Davis VP2

Sääasemaohjelma
Cumulus

Sääaseman tietokone
Asus EeePC

Palveluntarjoaja
Suncomet

Davis VP2

Cumulus

Asus EeePC

Suncomet